Airfield :
LOGIN :

Register | Disclaimer

   EN    FR    IT 

 










Legend :    VFR   Marginal VFR   IFR   Intensive IFR   Very Intensive IFR
Visi :
Ceiling :
>= 8 km
>= 3000ft
5 to 8 km
1000 to 3000 ft
1500m to 5 km
500 to 1000 ft
800 to 1500m
200 to 500 ft
< 800m
< 200 ft
Symbols :   Thunderstorms  Fog  Heavy snow  Heavy precipitations  Wind > 20 kt
SIGMETs :     Misc.  Thunderstorms  Icing  Turbulence  Mountain Waves  Volcanic Ashes







- Airport Elevation : 202 ft
- IATA code : LGW
- Download approach charts


EGKK - London Gatwick

CURRENT METAR :
  • 222050Z VRB03KT CAVOK 15/13 Q1006

EXPIRED METARs :
  • 222020Z 17004KT 140V200 CAVOK 15/14 Q1006
  • 221950Z 19005KT 150V220 CAVOK 16/14 Q1006
  • 221920Z 20005KT CAVOK 16/13 Q1006
  • 221850Z VRB03KT CAVOK 16/13 Q1006
  • 221820Z 21005KT CAVOK 17/13 Q1005

TAF TAF EGKK
Valid from the 22 at 18:00 until the 24 at 00:00 UTC


221656Z 2218/2324 19007KT 9999 SCT025
PROB30
TEMPO 2223/2306 BKN009
TEMPO 2317/2324 6000 RA
BECMG 2319/2322 BKN008
PROB40
TEMPO 2320/2324 3000 RADZ BKN004
No reported NOTAMs for that airfield.



MET'MAP, your aeronautical weather chart ! - Copyright ORBIFLY December 2007 - Disclaimer

ORBIFLY MET'MAP TEAM :

Programming & Development : Alexandra Zaïnal
Concept & Development : Baudouin d'Aumeries
Co-Development & Prog : Marc-Olivier Méhu
Technical & hardware support : Manuel Goepfert

Contact : metmap@orbifly.com




SOURCES & CREDITS :

   NOAA